Time;durP1;ratioP1;P1;durP2;ratioP2;P2;SDS_P1;SDS_P2;PMS_P1;PMS_P2;Temp;Humidity;BMP_temperature;BMP_pressure;BME280_temperature;BME280_humidity;BME280_pressure;Samples;Min_cycle;Max_cycle;Signal;HPM_P1;HPM_P2
2022/01/26 00:08:06;;;;;;;14.57;8.07;;;;;;;-3.86;100.00;99772.69;4892849;29;20429;-59
2022/01/26 00:10:51;;;;;;;17.08;7.60;;;;;;;-3.89;100.00;99772.56;4900516;29;20200;-67
2022/01/26 00:13:36;;;;;;;;;;;;;;;-3.91;100.00;99763.88;4893343;29;20055;-59
2022/01/26 00:16:38;;;;;;;16.73;8.07;;;;;;;-3.95;100.00;99771.47;4893897;29;19942;-59
2022/01/26 00:19:29;;;;;;;15.65;7.78;;;;;;;-4.00;100.00;99765.25;4863410;29;20112;-61
2022/01/26 00:22:33;;;;;;;18.67;8.65;;;;;;;-3.84;100.00;99777.94;4890715;29;20563;-61
2022/01/26 00:25:24;;;;;;;17.53;8.30;;;;;;;-3.82;100.00;99777.16;4890966;29;20127;-59
2022/01/26 00:28:35;;;;;;;15.85;7.63;;;;;;;-3.89;100.00;99767.41;4892198;29;20099;-62
2022/01/26 00:38:33;;;;;;;18.05;8.27;;;;;;;-3.89;100.00;99772.56;4890509;29;20206;-64
2022/01/26 00:43:24;;;;;;;17.75;7.90;;;;;;;-3.42;100.00;99767.38;4893126;29;20134;-54
2022/01/26 00:46:11;;;;;;;15.60;8.10;;;;;;;-3.18;100.00;99772.50;4888720;29;20056;-59
2022/01/26 00:48:56;;;;;;;16.17;8.32;;;;;;;-3.69;100.00;99769.00;4878978;29;20056;-60
2022/01/26 00:51:42;;;;;;;17.85;8.68;;;;;;;-3.76;100.00;99768.72;4890320;29;20084;-57
2022/01/26 00:54:27;;;;;;;19.42;9.00;;;;;;;-3.68;100.00;99764.72;4889047;29;20055;-59
2022/01/26 00:57:13;;;;;;;17.92;8.52;;;;;;;-3.51;100.00;99754.09;4889629;29;20056;-58
2022/01/26 00:59:59;;;;;;;17.75;8.85;;;;;;;-3.71;100.00;99765.47;4884967;29;20152;-59
2022/01/26 01:02:45;;;;;;;16.58;8.30;;;;;;;-3.68;100.00;99770.75;4887684;29;20060;-60
2022/01/26 01:05:42;;;;;;;18.60;8.63;;;;;;;-3.61;100.00;99754.59;4887417;29;20499;-57
2022/01/26 01:08:28;;;;;;;17.20;9.07;;;;;;;-3.74;100.00;99747.25;4888847;29;20047;-61
2022/01/26 01:11:15;;;;;;;18.50;8.65;;;;;;;-3.53;100.00;99752.31;4873209;29;20092;-57
2022/01/26 01:13:59;;;;;;;15.55;8.10;;;;;;;-3.20;100.00;99759.50;4886058;29;20059;-58
2022/01/26 01:16:45;;;;;;;17.40;7.50;;;;;;;-3.59;100.00;99763.31;4888296;29;20051;-60
2022/01/26 01:19:38;;;;;;;16.85;7.95;;;;;;;-3.75;100.00;99757.53;4885441;29;20067;-56
2022/01/26 01:31:44;;;;;;;20.00;9.02;;;;;;;-2.61;100.00;99751.94;4896014;29;20077;-58
2022/01/26 01:34:38;;;;;;;17.50;8.23;;;;;;;-3.22;100.00;99749.91;4890951;29;20048;-57
2022/01/26 01:37:23;;;;;;;18.97;8.00;;;;;;;-3.41;100.00;99763.94;4887165;29;20108;-63
2022/01/26 01:40:09;;;;;;;14.30;7.70;;;;;;;-3.45;100.00;99762.09;4887197;29;20583;-62
2022/01/26 01:42:54;;;;;;;16.85;8.10;;;;;;;-3.22;100.00;99753.38;4860414;29;20119;-59
2022/01/26 01:45:45;;;;;;;;;;;;;;;-3.17;100.00;99758.72;4887474;29;20536;-58
2022/01/26 01:48:32;;;;;;;15.85;7.60;;;;;;;-3.55;100.00;99741.88;4882408;29;20299;-59
2022/01/26 01:51:18;;;;;;;19.17;9.63;;;;;;;-3.94;100.00;99745.66;4887814;29;20579;-61
2022/01/26 01:54:05;;;;;;;17.65;8.88;;;;;;;-3.99;100.00;99742.00;4890947;29;20092;-59
2022/01/26 01:56:57;;;;;;;19.25;9.00;;;;;;;-3.93;100.00;99738.75;4888891;29;20096;-54
2022/01/26 01:59:44;;;;;;;18.50;8.98;;;;;;;-3.96;100.00;99744.69;4878270;29;20563;-55
2022/01/26 02:02:29;;;;;;;19.85;9.20;;;;;;;-3.95;100.00;99743.88;4891222;29;20060;-57
2022/01/26 02:05:13;;;;;;;;;;;;;;;-4.03;100.00;99734.97;4889557;29;20132;-63
2022/01/26 02:08:02;;;;;;;24.48;10.02;;;;;;;-4.14;100.00;99736.28;4892068;29;19930;-55
2022/01/26 02:10:47;;;;;;;25.85;10.95;;;;;;;-4.19;100.00;99739.50;4875647;29;20181;-56
2022/01/26 02:13:41;;;;;;;24.35;10.93;;;;;;;-4.27;100.00;99746.09;4890931;29;20120;-58
2022/01/26 02:52:57;;;;;;;24.20;9.55;;;;;;;-4.46;100.00;99752.31;4889598;29;20087;-58
2022/01/26 02:55:46;;;;;;;24.27;9.07;;;;;;;-4.25;100.00;99762.56;4887356;29;20110;-56
2022/01/26 03:07:37;;;;;;;16.75;8.15;;;;;;;-3.95;100.00;99763.72;4874802;29;20466;-67
2022/01/26 03:10:35;;;;;;;20.98;8.70;;;;;;;-3.92;100.00;99763.84;4898761;29;20091;-64
2022/01/26 03:13:26;;;;;;;18.48;8.55;;;;;;;-3.75;100.00;99766.22;4899388;29;20165;-62
2022/01/26 03:16:21;;;;;;;21.20;8.23;;;;;;;-3.73;100.00;99766.25;4883434;29;20055;-65
2022/01/26 03:34:10;;;;;;;19.63;8.32;;;;;;;-3.48;100.00;99759.38;4892745;29;20056;-66
2022/01/26 03:37:04;;;;;;;17.38;7.68;;;;;;;-3.38;100.00;99769.25;4883062;29;20111;-62
2022/01/26 03:39:51;;;;;;;19.02;7.57;;;;;;;-3.43;100.00;99765.63;4892626;29;20569;-62
2022/01/26 03:42:36;;;;;;;18.55;7.93;;;;;;;-3.43;100.00;99767.31;4901248;29;20075;-64
2022/01/26 03:45:21;;;;;;;;;;;;;;;-3.45;100.00;99769.00;4892580;29;20059;-62
2022/01/26 03:48:06;;;;;;;19.17;8.32;;;;;;;-3.63;100.00;99766.63;4893261;29;20063;-64
2022/01/26 03:50:51;;;;;;;22.95;8.52;;;;;;;-3.67;100.00;99772.53;4892924;29;20056;-57
2022/01/26 03:53:36;;;;;;;15.18;7.55;;;;;;;-3.54;100.00;99766.94;4894335;29;20405;-62
2022/01/26 03:56:22;;;;;;;19.25;8.70;;;;;;;-3.51;100.00;99776.53;4884013;29;20516;-63
2022/01/26 03:59:07;;;;;;;17.27;8.15;;;;;;;-3.41;100.00;99769.13;4905381;29;20058;-62
2022/01/26 04:01:54;;;;;;;18.85;8.30;;;;;;;-3.19;100.00;99770.75;4879363;29;20068;-58
2022/01/26 04:04:47;;;;;;;17.05;8.20;;;;;;;-3.27;100.00;99767.91;4893235;29;20432;-56
2022/01/26 04:07:32;;;;;;;20.35;8.70;;;;;;;-3.46;100.00;99760.31;4893245;29;20056;-58
2022/01/26 04:10:28;;;;;;;;;;;;;;;-3.34;100.00;99757.25;4892635;29;20055;-65
2022/01/26 04:13:14;;;;;;;16.17;8.13;;;;;;;-3.35;100.00;99759.00;4893046;29;19958;-60
2022/01/26 04:16:00;;;;;;;17.42;8.07;;;;;;;-3.26;100.00;99763.59;4894263;29;20059;-59
2022/01/26 04:18:45;;;;;;;18.80;8.40;;;;;;;-3.21;100.00;99759.47;4894428;29;20051;-67
2022/01/26 04:24:24;;;;;;;17.73;9.15;;;;;;;-3.29;100.00;99750.53;4891174;29;20151;-59
2022/01/26 04:29:58;;;;;;;17.35;7.38;;;;;;;-3.22;100.00;99762.84;4904370;29;20063;-63
2022/01/26 04:32:43;;;;;;;18.10;8.35;;;;;;;-3.19;100.00;99761.28;4890552;29;20052;-68
2022/01/26 04:35:28;;;;;;;18.48;9.05;;;;;;;-3.13;100.00;99763.19;4880506;29;20091;-67
2022/01/26 04:38:21;;;;;;;19.17;8.15;;;;;;;-3.14;100.00;99762.31;4874592;29;20100;-62
2022/01/26 04:41:27;;;;;;;17.05;8.30;;;;;;;-3.20;100.00;99769.00;4903331;29;20071;-63
2022/01/26 04:44:20;;;;;;;;;;;;;;;-3.24;100.00;99765.41;4887241;29;20429;-63
2022/01/26 04:47:06;;;;;;;15.98;7.75;;;;;;;-3.46;100.00;99749.97;4892730;29;20396;-62
2022/01/26 04:49:51;;;;;;;18.98;8.90;;;;;;;-3.56;100.00;99752.19;4890813;29;20186;-67
2022/01/26 04:52:37;;;;;;;21.33;9.05;;;;;;;-3.45;100.00;99756.91;4891288;29;20093;-63
2022/01/26 04:55:23;;;;;;;19.70;9.15;;;;;;;-3.47;100.00;99768.94;4886642;29;20107;-62
2022/01/26 04:58:09;;;;;;;23.70;10.30;;;;;;;-3.45;100.00;99762.09;4904905;29;20540;-62
2022/01/26 05:00:54;;;;;;;23.13;9.73;;;;;;;-3.46;100.00;99755.16;4891257;29;21831;-63
2022/01/26 05:03:38;;;;;;;31.33;11.82;;;;;;;-3.19;100.00;99755.19;4891552;29;20531;-67
2022/01/26 05:06:23;;;;;;;32.85;13.02;;;;;;;-2.83;100.00;99751.22;4890393;29;20099;-61
2022/01/26 05:09:08;;;;;;;;;;;;;;;-2.62;100.00;99757.97;4888910;29;20060;-63
2022/01/26 05:14:18;;;;;;;24.05;9.23;;;;;;;-2.82;100.00;99764.22;4891369;29;20056;-59
2022/01/26 05:17:03;;;;;;;27.65;10.88;;;;;;;-2.80;100.00;99760.00;4891731;29;20132;-58
2022/01/26 05:19:48;;;;;;;;;;;;;;;-2.84;100.00;99760.72;4890163;29;20116;-63
2022/01/26 05:22:35;;;;;;;35.20;12.63;;;;;;;-3.05;100.00;99743.59;4881726;29;20438;-57
2022/01/26 05:25:20;;;;;;;31.00;11.98;;;;;;;-2.93;100.00;99747.44;4891731;29;20056;-55
2022/01/26 05:28:05;;;;;;;30.52;12.13;;;;;;;-2.80;100.00;99744.44;4868720;29;20207;-58
2022/01/26 05:30:50;;;;;;;29.75;11.30;;;;;;;-2.51;100.00;99756.59;4890917;29;20046;-57
2022/01/26 05:33:34;;;;;;;26.00;11.98;;;;;;;-2.54;100.00;99755.63;4890780;29;20050;-55
2022/01/26 05:36:19;;;;;;;24.13;10.70;;;;;;;-2.52;100.00;99754.84;4889301;29;20055;-57
2022/01/26 05:39:04;;;;;;;;;;;;;;;-2.40;100.00;99756.91;4873750;29;20063;-58
2022/01/26 05:41:49;;;;;;;25.10;10.45;;;;;;;-2.28;100.00;99749.50;4887922;29;20058;-58
2022/01/26 05:44:35;;;;;;;;;;;;;;;-2.05;100.00;99754.50;4889919;29;20048;-58
2022/01/26 05:47:21;;;;;;;25.45;11.38;;;;;;;-1.99;100.00;99751.22;4890556;29;19930;-57
2022/01/26 05:50:06;;;;;;;27.67;11.82;;;;;;;-1.94;100.00;99753.13;4890205;29;20058;-59
2022/01/26 05:52:51;;;;;;;23.55;12.35;;;;;;;-1.87;100.00;99755.06;4886726;29;20390;-64
2022/01/26 05:55:36;;;;;;;28.23;12.45;;;;;;;-1.95;100.00;99764.34;4889989;29;20535;-58
2022/01/26 05:58:20;;;;;;;33.38;13.77;;;;;;;-1.86;100.00;99763.75;4888668;29;20061;-61
2022/01/26 06:01:07;;;;;;;32.88;12.80;;;;;;;-1.76;100.00;99753.66;4891140;29;20059;-56
2022/01/26 06:03:52;;;;;;;28.98;12.60;;;;;;;-1.77;100.00;99758.81;4889248;29;20116;-60
2022/01/26 06:06:36;;;;;;;33.03;13.98;;;;;;;-1.82;100.00;99761.25;4890948;29;20048;-57
2022/01/26 06:09:22;;;;;;;29.27;12.75;;;;;;;-1.81;100.00;99769.94;4889124;29;21005;-56
2022/01/26 06:12:07;;;;;;;27.30;13.48;;;;;;;-1.83;100.00;99769.00;4890184;29;20131;-63
2022/01/26 06:14:52;;;;;;;33.50;13.68;;;;;;;-1.83;100.00;99774.19;4876490;29;20052;-57
2022/01/26 06:17:37;;;;;;;28.35;13.20;;;;;;;-2.02;100.00;99772.78;4888362;29;20109;-58
2022/01/26 06:20:22;;;;;;;29.10;13.02;;;;;;;-2.13;100.00;99774.19;4891303;29;20063;-67
2022/01/26 06:23:07;;;;;;;32.30;13.52;;;;;;;-2.13;100.00;99768.13;4889706;29;20063;-61
2022/01/26 06:25:55;;;;;;;28.73;13.48;;;;;;;-1.93;100.00;99767.84;4875352;29;20147;-69
2022/01/26 06:28:40;;;;;;;29.20;13.68;;;;;;;-2.05;100.00;99771.84;4883715;29;20536;-63
2022/01/26 06:31:27;;;;;;;29.55;14.35;;;;;;;-2.00;100.00;99770.25;4879591;29;20066;-72
2022/01/26 06:34:13;;;;;;;30.95;14.07;;;;;;;-2.11;100.00;99767.34;4877407;29;20059;-54
2022/01/26 06:36:59;;;;;;;33.50;14.30;;;;;;;-2.09;100.00;99778.63;4883259;29;20111;-60
2022/01/26 06:39:44;;;;;;;33.38;14.52;;;;;;;-2.15;100.00;99781.06;4890964;29;20071;-58
2022/01/26 06:42:35;;;;;;;33.70;13.35;;;;;;;-1.94;100.00;99778.22;4905727;29;20115;-60
2022/01/26 06:45:26;;;;;;;32.60;13.55;;;;;;;-1.99;100.00;99777.19;4893391;29;20084;-60
2022/01/26 06:51:00;;;;;;;34.45;13.60;;;;;;;-2.10;100.00;99776.03;4890224;29;20441;-54
2022/01/26 06:53:45;;;;;;;31.10;13.38;;;;;;;-1.79;100.00;99776.03;4894419;29;20111;-54
2022/01/26 06:56:31;;;;;;;31.30;12.80;;;;;;;-1.80;100.00;99784.69;4894893;29;20153;-57
2022/01/26 06:59:16;;;;;;;33.03;14.07;;;;;;;-1.62;100.00;99774.81;4893375;29;20048;-55
2022/01/26 07:02:02;;;;;;;33.75;14.32;;;;;;;-1.55;100.00;99784.53;4894454;29;20531;-56
2022/01/26 07:04:48;;;;;;;36.15;14.73;;;;;;;-1.44;100.00;99785.72;4891789;29;20362;-59
2022/01/26 07:07:36;;;;;;;34.10;13.38;;;;;;;-1.39;100.00;99787.59;4893422;29;20104;-60
2022/01/26 07:10:21;;;;;;;35.10;14.55;;;;;;;-1.40;100.00;99787.56;4889201;29;20453;-56
2022/01/26 07:13:06;;;;;;;;;;;;;;;-1.37;100.00;99790.25;4893922;29;20054;-63
2022/01/26 07:21:59;;;;;;;37.97;15.95;;;;;;;-1.57;100.00;99794.03;4890094;29;20055;-60
2022/01/26 07:24:44;;;;;;;35.85;16.02;;;;;;;-1.42;100.00;99787.50;4886755;29;20068;-61
2022/01/26 07:27:29;;;;;;;33.42;15.48;;;;;;;-1.39;100.00;99800.59;4883054;29;20444;-60
2022/01/26 07:30:14;;;;;;;40.38;17.00;;;;;;;-1.39;100.00;99791.91;4893327;29;20115;-65
2022/01/26 07:32:59;;;;;;;38.95;16.38;;;;;;;-1.46;100.00;99798.66;4885402;29;20127;-62
2022/01/26 07:35:43;;;;;;;38.00;17.45;;;;;;;-1.63;100.00;99802.53;4893290;29;20100;-58
2022/01/26 07:38:28;;;;;;;40.20;17.45;;;;;;;-1.43;100.00;99798.75;4906152;29;20063;-59
2022/01/26 07:41:13;;;;;;;37.35;16.50;;;;;;;-1.19;100.00;99806.38;4892438;29;20063;-60
2022/01/26 07:43:58;;;;;;;38.85;16.83;;;;;;;-1.02;100.00;99805.94;4875188;29;20139;-56
2022/01/26 07:46:43;;;;;;;41.53;17.63;;;;;;;-1.11;100.00;99799.63;4894084;29;20051;-58
2022/01/26 07:49:28;;;;;;;39.83;17.33;;;;;;;-1.10;100.00;99801.38;4891822;29;20059;-62
2022/01/26 07:52:14;;;;;;;40.25;17.15;;;;;;;-0.95;100.00;99801.81;4894027;29;20157;-55
2022/01/26 07:55:00;;;;;;;41.55;17.60;;;;;;;-0.92;100.00;99810.56;4891598;29;20433;-62
2022/01/26 07:57:46;;;;;;;41.38;17.88;;;;;;;-0.80;100.00;99815.16;4875788;29;20056;-58
2022/01/26 08:00:31;;;;;;;41.45;16.80;;;;;;;-0.59;100.00;99811.38;4875197;29;20079;-60
2022/01/26 08:03:17;;;;;;;38.78;17.00;;;;;;;-0.52;100.00;99808.09;4878094;29;20075;-62
2022/01/26 08:06:06;;;;;;;42.28;17.48;;;;;;;-0.43;100.00;99808.31;4892958;29;20504;-61
2022/01/26 08:08:53;;;;;;;39.80;18.30;;;;;;;-0.72;100.00;99808.44;4877549;29;20052;-70
2022/01/26 08:11:38;;;;;;;36.30;16.50;;;;;;;-0.73;100.00;99814.50;4891860;29;20060;-56
2022/01/26 08:14:23;;;;;;;38.13;17.23;;;;;;;-0.57;100.00;99811.41;4874689;29;20237;-62
2022/01/26 08:17:09;;;;;;;;;;;;;;;-0.54;100.00;99817.59;4892292;29;20056;-63
2022/01/26 08:19:56;;;;;;;38.28;16.48;;;;;;;-0.47;100.00;99832.50;4894569;29;20398;-60
2022/01/26 08:22:40;;;;;;;42.30;18.02;;;;;;;-0.43;100.00;99834.34;4878252;29;20057;-60
2022/01/26 08:25:28;;;;;;;40.00;18.50;;;;;;;-0.33;100.00;99836.34;4893840;29;20140;-57
2022/01/26 08:28:21;;;;;;;47.53;20.45;;;;;;;-0.33;100.00;99822.44;4892381;29;20091;-59
2022/01/26 08:31:07;;;;;;;42.78;18.48;;;;;;;-0.56;100.00;99834.00;4893494;29;20100;-65
2022/01/26 08:33:51;;;;;;;;;;;;;;;-0.48;100.00;99828.16;4893447;29;20104;-60
2022/01/26 08:36:36;;;;;;;39.55;16.70;;;;;;;-0.37;100.00;99834.50;4891779;29;19974;-58
2022/01/26 08:39:21;;;;;;;42.08;17.70;;;;;;;-0.26;100.00;99833.03;4898628;29;20084;-56
2022/01/26 08:42:06;;;;;;;;;;;;;;;-0.02;100.00;99835.31;4893451;29;20083;-56
2022/01/26 08:44:53;;;;;;;39.15;16.38;;;;;;;0.08;100.00;99831.19;4894666;29;19926;-53
2022/01/26 08:47:42;;;;;;;37.45;16.33;;;;;;;0.20;100.00;99834.06;4892773;29;20111;-57
2022/01/26 08:50:29;;;;;;;35.25;16.25;;;;;;;0.29;100.00;99840.38;4890446;29;20528;-55
2022/01/26 08:53:14;;;;;;;33.72;14.93;;;;;;;0.32;100.00;99839.56;4860212;29;20127;-54
2022/01/26 08:55:59;;;;;;;34.00;15.23;;;;;;;0.34;100.00;99832.63;4890284;29;20640;-58
2022/01/26 08:58:44;;;;;;;37.55;15.20;;;;;;;0.37;100.00;99845.72;4891200;29;20072;-56
2022/01/26 09:01:29;;;;;;;35.92;16.13;;;;;;;0.08;100.00;99847.72;4886827;29;20083;-57
2022/01/26 09:04:17;;;;;;;35.03;15.18;;;;;;;0.13;100.00;99849.56;4891935;29;20410;-63
2022/01/26 09:07:04;;;;;;;38.92;16.23;;;;;;;0.20;100.00;99849.72;4891905;29;20056;-56
2022/01/26 09:09:51;;;;;;;36.63;16.02;;;;;;;0.26;100.00;99857.66;4877127;29;20210;-58
2022/01/26 09:12:41;;;;;;;36.22;15.80;;;;;;;0.31;100.00;99850.84;4891235;29;20063;-58
2022/01/26 09:15:29;;;;;;;37.83;16.10;;;;;;;0.42;100.00;99858.03;4873217;29;20052;-58
2022/01/26 09:18:19;;;;;;;32.05;14.57;;;;;;;0.19;100.00;99851.44;4886126;29;20060;-66
2022/01/26 09:21:05;;;;;;;36.53;15.40;;;;;;;0.29;100.00;99847.28;4891012;29;20111;-63
2022/01/26 09:23:52;;;;;;;40.15;16.85;;;;;;;0.51;100.00;99845.16;4891228;29;20788;-61
2022/01/26 09:26:38;;;;;;;35.72;15.07;;;;;;;0.50;100.00;99851.25;4897971;29;20130;-71
2022/01/26 09:29:23;;;;;;;39.60;15.68;;;;;;;0.58;100.00;99862.72;4883275;29;20071;-59
2022/01/26 09:32:08;;;;;;;34.00;14.00;;;;;;;0.64;100.00;99860.25;4876082;29;20087;-60
2022/01/26 09:34:54;;;;;;;30.15;13.48;;;;;;;0.55;100.00;99869.63;4903901;29;20067;-59
2022/01/26 09:37:38;;;;;;;33.42;14.45;;;;;;;0.59;100.00;99864.47;4890869;29;20083;-61
2022/01/26 09:40:24;;;;;;;31.02;13.07;;;;;;;0.60;100.00;99857.53;4891118;29;20151;-54
2022/01/26 09:43:11;;;;;;;30.85;14.13;;;;;;;0.56;100.00;99858.31;4909082;29;20700;-68
2022/01/26 09:45:56;;;;;;;31.08;12.65;;;;;;;0.58;100.00;99854.91;4889914;29;20115;-63
2022/01/26 09:48:42;;;;;;;31.90;14.30;;;;;;;0.60;100.00;99857.53;4876589;29;20075;-63
2022/01/26 09:51:28;;;;;;;30.15;13.30;;;;;;;0.64;100.00;99861.97;4888861;29;20080;-61
2022/01/26 09:54:17;;;;;;;30.90;13.68;;;;;;;0.71;100.00;99859.50;4891895;29;20426;-54
2022/01/26 09:57:04;;;;;;;28.90;12.68;;;;;;;0.55;100.00;99859.19;4899014;29;20058;-59
2022/01/26 09:59:48;;;;;;;31.65;14.02;;;;;;;0.51;100.00;99847.78;4891637;29;20100;-64
2022/01/26 10:02:45;;;;;;;33.38;13.20;;;;;;;0.70;100.00;99865.56;4890758;29;20060;-64
2022/01/26 10:05:45;;;;;;;29.67;13.10;;;;;;;0.96;100.00;99858.25;4889805;29;20123;-58
2022/01/26 10:17:39;;;;;;;28.75;12.73;;;;;;;1.15;100.00;99870.81;4891169;29;20056;-59
2022/01/26 10:20:52;;;;;;;30.80;13.77;;;;;;;1.23;100.00;99864.88;4906193;29;20095;-59
2022/01/26 10:23:42;;;;;;;29.38;12.60;;;;;;;1.18;100.00;99865.66;4891341;29;20047;-59
2022/01/26 10:26:26;;;;;;;29.00;12.80;;;;;;;1.10;100.00;99865.50;4903171;29;20135;-57
2022/01/26 10:29:15;;;;;;;33.65;13.15;;;;;;;1.13;100.00;99873.41;4889446;29;20084;-57
2022/01/26 10:32:11;;;;;;;26.13;11.75;;;;;;;1.21;100.00;99865.69;4897118;29;20099;-60
2022/01/26 10:35:02;;;;;;;31.33;13.32;;;;;;;1.10;100.00;99868.13;4893413;29;20091;-60
2022/01/26 10:37:55;;;;;;;26.85;12.10;;;;;;;1.03;100.00;99865.38;4861386;29;20112;-65
2022/01/26 10:40:40;;;;;;;25.65;12.68;;;;;;;0.93;100.00;99869.53;4899978;29;20087;-68
2022/01/26 10:43:28;;;;;;;28.17;12.57;;;;;;;1.06;100.00;99875.88;4899150;29;20432;-65
2022/01/26 10:46:35;;;;;;;29.35;12.98;;;;;;;1.12;100.00;99860.31;4911036;29;20436;-65
2022/01/26 10:49:42;;;;;;;25.60;11.88;;;;;;;0.94;100.00;99865.19;4879510;29;20128;-61
2022/01/26 10:52:36;;;;;;;24.30;11.35;;;;;;;0.84;100.00;99864.13;4873614;29;20059;-65
2022/01/26 10:55:23;;;;;;;30.55;12.55;;;;;;;0.74;100.00;99862.19;4912594;29;20054;-62
2022/01/26 10:58:08;;;;;;;26.70;11.85;;;;;;;0.58;100.00;99856.59;4904601;29;20089;-64
2022/01/26 11:00:54;;;;;;;31.90;12.55;;;;;;;0.73;100.00;99864.75;4880380;29;20091;-60
2022/01/26 11:03:40;;;;;;;27.63;12.48;;;;;;;0.80;100.00;99845.78;4891661;29;20096;-57
2022/01/26 11:06:26;;;;;;;28.55;12.85;;;;;;;0.94;100.00;99850.41;4893623;29;20104;-60
2022/01/26 11:09:15;;;;;;;28.70;12.95;;;;;;;0.74;100.00;99853.50;4889718;29;20075;-56
2022/01/26 11:12:06;;;;;;;29.38;12.68;;;;;;;0.74;100.00;99859.56;4895472;29;20055;-58
2022/01/26 11:15:07;;;;;;;27.55;12.18;;;;;;;0.89;100.00;99851.16;4893132;29;20051;-56
2022/01/26 11:18:08;;;;;;;32.65;12.35;;;;;;;0.84;100.00;99848.47;4901326;29;20055;-59
2022/01/26 11:20:54;;;;;;;29.20;12.63;;;;;;;0.81;100.00;99853.63;4877047;29;20070;-55
2022/01/26 11:23:40;;;;;;;31.40;12.75;;;;;;;0.78;100.00;99847.50;4893150;29;20124;-67
2022/01/26 11:26:28;;;;;;;29.05;12.52;;;;;;;0.88;100.00;99862.47;4879875;29;20113;-54
2022/01/26 11:29:17;;;;;;;28.83;12.40;;;;;;;0.89;100.00;99862.50;4895945;29;20051;-58
2022/01/26 11:32:13;;;;;;;30.48;12.70;;;;;;;0.87;100.00;99863.31;4894949;29;20417;-63
2022/01/26 11:35:00;;;;;;;27.98;12.98;;;;;;;0.76;100.00;99865.72;4894360;29;20060;-62
2022/01/26 11:37:49;;;;;;;30.45;12.10;;;;;;;0.76;100.00;99850.06;4896453;29;20066;-63
2022/01/26 11:46:55;;;;;;;28.35;12.18;;;;;;;0.97;100.00;99860.00;4898882;29;20056;-61
2022/01/26 11:49:43;;;;;;;27.90;13.23;;;;;;;0.70;100.00;99865.56;4898231;29;20130;-60
2022/01/26 11:52:35;;;;;;;26.77;12.25;;;;;;;0.86;100.00;99875.47;4910516;29;20177;-59
2022/01/26 11:55:28;;;;;;;28.27;12.45;;;;;;;0.94;100.00;99876.50;4883863;29;20047;-63
2022/01/26 11:58:34;;;;;;;29.38;12.25;;;;;;;0.80;100.00;99877.09;4895222;29;20124;-63
2022/01/26 12:01:27;;;;;;;29.88;12.65;;;;;;;0.90;100.00;99884.25;4897988;29;20427;-61
2022/01/26 12:04:26;;;;;;;28.33;12.35;;;;;;;1.01;100.00;99877.50;4883927;29;20211;-73
2022/01/26 12:07:29;;;;;;;29.92;13.02;;;;;;;1.01;100.00;99870.56;4898258;29;20058;-59
2022/01/26 12:10:29;;;;;;;31.10;13.45;;;;;;;1.00;100.00;99875.75;4895466;29;20103;-55
2022/01/26 12:13:19;;;;;;;29.88;13.35;;;;;;;1.05;100.00;99874.97;4897771;29;20055;-60
2022/01/26 12:16:15;;;;;;;30.42;13.15;;;;;;;0.88;100.00;99876.41;4891885;29;20398;-62
2022/01/26 12:19:26;;;;;;;31.23;12.98;;;;;;;0.74;100.00;99876.97;4894768;29;20048;-59
2022/01/26 12:37:15;;;;;;;31.73;14.38;;;;;;;0.86;100.00;99872.00;4860299;29;20151;-68
2022/01/26 12:45:34;;;;;;;27.90;13.73;;;;;;;1.03;100.00;99881.88;4897471;29;20064;-60
2022/01/26 12:48:19;;;;;;;31.08;14.65;;;;;;;1.04;100.00;99881.06;4884370;29;20119;-65
2022/01/26 12:51:06;;;;;;;28.90;14.00;;;;;;;0.93;100.00;99876.47;4897843;29;20054;-57
2022/01/26 12:53:57;;;;;;;33.60;14.02;;;;;;;0.89;100.00;99879.88;4896815;29;20116;-61
2022/01/26 12:56:45;;;;;;;28.20;13.52;;;;;;;0.77;100.00;99879.63;4879869;29;20067;-57
2022/01/26 12:59:46;;;;;;;29.38;12.95;;;;;;;0.70;100.00;99883.84;4906076;29;20670;-67
2022/01/26 13:02:57;;;;;;;27.92;12.48;;;;;;;0.62;100.00;99881.91;4872064;29;20107;-66
2022/01/26 13:06:12;;;;;;;25.30;12.45;;;;;;;0.60;100.00;99894.06;4870518;29;20059;-68
2022/01/26 13:09:42;;;;;;;22.02;12.15;;;;;;;0.56;100.00;99880.09;4851291;29;20156;-58
2022/01/26 13:12:50;;;;;;;26.15;13.35;;;;;;;0.55;100.00;99895.69;4815506;29;20125;-55
2022/01/26 13:19:00;;;;;;;25.73;12.50;;;;;;;0.43;100.00;99900.66;4809610;29;20107;-60
2022/01/26 13:25:54;;;;;;;24.80;11.95;;;;;;;0.19;100.00;99900.97;4830647;29;20441;-59
2022/01/26 13:41:46;;;;;;;;;;;;;;;0.33;100.00;99914.31;4890270;29;20055;-68
2022/01/26 13:45:14;;;;;;;19.52;8.63;;;;;;;0.38;100.00;99912.69;4889922;29;19930;-65
2022/01/26 13:52:58;;;;;;;16.13;7.97;;;;;;;0.51;100.00;99912.13;4877226;29;20505;-63
2022/01/26 14:01:49;;;;;;;19.90;8.98;;;;;;;0.33;100.00;99923.03;4875662;29;20524;-66
2022/01/26 14:10:14;;;;;;;17.15;7.57;;;;;;;0.46;100.00;99924.16;4816120;29;20459;-59
2022/01/26 14:13:00;;;;;;;;;;;;;;;0.45;100.00;99919.81;4803851;29;20084;-63
2022/01/26 14:15:48;;;;;;;;;;;;;;;0.32;100.00;99921.28;4815285;29;19967;-72
2022/01/26 14:23:57;;;;;;;11.70;6.22;;;;;;;0.32;100.00;99905.63;4813257;29;20150;-59
2022/01/26 14:26:49;;;;;;;18.73;8.38;;;;;;;0.40;100.00;99914.50;4770542;29;20090;-59
2022/01/26 14:30:02;;;;;;;15.95;7.00;;;;;;;0.33;100.00;99925.63;4810944;29;20435;-58
2022/01/26 14:33:04;;;;;;;15.10;7.75;;;;;;;0.44;100.00;99928.47;4814894;29;20163;-58
2022/01/26 14:53:55;;;;;;;14.93;6.73;;;;;;;0.15;100.00;99942.59;4887398;29;20055;-70
2022/01/26 15:34:33;;;;;;;11.68;6.43;;;;;;;0.13;100.00;99966.88;4889908;29;20551;-60
2022/01/26 15:43:46;;;;;;;9.50;5.50;;;;;;;0.19;100.00;99973.94;4886912;29;20064;-59
2022/01/26 16:04:15;;;;;;;14.60;5.75;;;;;;;0.41;100.00;99962.31;4890069;29;20076;-61
2022/01/26 18:16:55;;;;;;;11.55;5.80;;;;;;;0.42;100.00;99915.41;4828226;29;20061;-63
2022/01/26 18:33:18;;;;;;;10.23;4.88;;;;;;;0.51;100.00;99988.63;4874766;29;20205;-63
2022/01/26 18:49:19;;;;;;;7.13;3.25;;;;;;;-0.35;100.00;99980.41;4799229;29;20427;-58
2022/01/26 18:52:05;;;;;;;7.65;3.50;;;;;;;-0.64;100.00;99961.41;4801369;29;20104;-55
2022/01/26 18:55:12;;;;;;;7.85;3.50;;;;;;;-0.50;100.00;99982.59;4799502;29;20065;-55
2022/01/26 18:58:36;;;;;;;4.40;3.00;;;;;;;-0.54;100.00;99978.16;4835157;24;20254;-63
2022/01/26 19:01:59;;;;;;;5.57;2.58;;;;;;;-0.71;100.00;99982.88;4863361;29;20140;-61
2022/01/26 19:04:47;;;;;;;6.55;2.85;;;;;;;-0.91;100.00;99972.78;4898395;23;20093;-60
2022/01/26 19:07:33;;;;;;;5.60;2.95;;;;;;;-0.85;100.00;99973.81;4874834;29;20051;-64
2022/01/26 19:10:18;;;;;;;4.75;2.50;;;;;;;-0.57;100.00;99986.75;4888255;29;20076;-57
2022/01/26 19:13:02;;;;;;;4.13;2.75;;;;;;;-0.86;100.00;99972.03;4889820;29;20055;-58
2022/01/26 19:16:34;;;;;;;4.55;2.50;;;;;;;-0.61;100.00;100004.84;4889627;29;20539;-61
2022/01/26 19:26:12;;;;;;;5.10;2.50;;;;;;;-0.73;100.00;99999.31;4870629;29;20530;-56
2022/01/26 19:29:43;;;;;;;5.78;2.72;;;;;;;-0.65;100.00;99996.09;4838700;29;20069;-60
2022/01/26 19:52:47;;;;;;;4.93;2.42;;;;;;;-1.20;100.00;99997.03;4861639;23;20072;-61
2022/01/26 19:55:38;;;;;;;5.28;2.55;;;;;;;-1.10;100.00;99999.97;4819998;29;20064;-58
2022/01/26 19:58:25;;;;;;;7.13;2.95;;;;;;;-1.19;100.00;100002.31;4865537;23;20860;-65
2022/01/26 20:01:11;;;;;;;4.60;2.55;;;;;;;-1.18;100.00;99983.25;4871495;29;20108;-61
2022/01/26 20:04:21;;;;;;;8.82;3.20;;;;;;;-1.05;100.00;100010.50;4883543;23;20107;-56
2022/01/26 20:07:22;;;;;;;8.02;2.72;;;;;;;-1.06;100.00;100011.38;4876092;29;20176;-64
2022/01/26 20:10:55;;;;;;;6.25;2.75;;;;;;;-0.84;100.00;100021.53;4874829;23;20478;-54
2022/01/26 20:14:46;;;;;;;;;;;;;;;;;;;;;
2022/01/26 20:18:33;;;;;;;8.52;3.30;;;;;;;-0.94;100.00;99994.38;4899510;23;20100;-54
2022/01/26 20:28:51;;;;;;;10.73;3.55;;;;;;;-0.91;100.00;100015.28;4860995;29;20467;-52
2022/01/26 20:31:43;;;;;;;8.48;2.90;;;;;;;-0.97;100.00;100017.72;4844692;29;20057;-59
2022/01/26 20:34:56;;;;;;;8.73;2.60;;;;;;;-1.12;100.00;100014.66;4853599;29;20060;-59
2022/01/26 20:38:09;;;;;;;5.35;2.20;;;;;;;-1.06;100.00;100013.97;4872229;23;20193;31
2022/01/26 20:41:33;;;;;;;6.43;2.95;;;;;;;-1.16;100.00;100017.09;4857117;29;20584;-56